• Join FlightAware (Why Join?)
  • Login
  • US Flag 
08:31PM EST


 

Airport Tracker/Info


-or-


 

Live Flight TrackerFlight Track Log ✈ N449ND ✈ 13-Apr-2014 ✈ KFPR - KTLH

Flight Track Log - Related Links

Times and Time Zones

All times are in EDT time to prevent confusion due to time zone crossing. See the N449ND flight status page for this flight to view local times or setup timezone preferences in your user account.

Time Position Orientation Groundspeed Altitude Reporting Facility
EDT Latitude Longitude Course Direction KTS MPH feet Rate Location/Type
09:05AM 27.4983 -80.3569 139° Southeast 90 104 500  Level Miami Center
09:06AM 27.4861 -80.3450 139° Southeast 69 79 6,000 600 Climbing Miami Center
09:07AM 27.4608 -80.3511 192° South 79 91 1,700  Descending Miami Center
09:08AM 27.4314 -80.3597 195° South 104 120 6,000 480 Climbing Miami Center
09:09AM 27.4122 -80.3778 220° Southwest 104 120 2,700 -1,440 Descending Miami Center
09:10AM 27.4178 -80.4083 282° West 99 114 3,200 420 Climbing Miami Center
09:11AM 27.4358 -80.4322 310° West 102 117 3,600 360 Climbing Miami Center
09:12AM 27.4581 -80.4589 313° West 108 124 4,000 120 Climbing Miami Center
09:13AM 27.4783 -80.4875 309° West 113 130 3,900 -60 Descending Miami Center
09:14AM 27.4986 -80.5139 311° West 113 130 3,900  Level Miami Center
09:15AM 27.5167 -80.5378 310° West 108 124 4,000  Climbing Miami Center
09:16AM 27.5369 -80.5642 311° West 108 124 4,000  Level Miami Center
09:17AM 27.5611 -80.5956 311° West 115 132 4,000  Level Miami Center
09:18AM 27.5833 -80.6219 314° West 110 127 4,000 -60 Level Miami Center
09:19AM 27.6036 -80.6531 306° West 117 135 3,900  Descending Miami Center
09:20AM 27.6197 -80.6747 310° West 110 127 4,000  Climbing Miami Center
09:21AM 27.6419 -80.7014 313° West 105 121 4,000  Level Miami Center
09:22AM 27.6619 -80.7278 311° West 105 121 4,000 -60 Level Miami Center
09:23AM 27.6822 -80.7542 311° West 105 121 3,900  Descending Miami Center
09:24AM 27.6983 -80.7781 307° West 105 121 4,000  Climbing Miami Center
09:25AM 27.7164 -80.8044 308° West 105 121 4,000  Level Miami Center
09:26AM 27.7344 -80.8311 307° West 110 127 4,000  Level Miami Center
09:27AM 27.7525 -80.8575 308° West 110 127 4,000  Level Miami Center
09:28AM 27.7747 -80.8864 311° West 110 127 4,000  Level Miami Center
09:30AM 27.8167 -80.9333 315° West 104 120 4,000 -60 Level Orlando TRACON
09:31AM 27.8333 -80.9667 299° West 105 121 3,900 -60 Descending Orlando TRACON
09:32AM 27.8500 -80.9833 319° Northwest 106 122 3,900  Level Orlando TRACON
09:33AM 27.8667 -81.0167 299° West 101 116 4,000  Climbing Orlando TRACON
09:34AM 27.8833 -81.0500 300° West 106 122 4,000  Level Orlando TRACON
09:35AM 27.9000 -81.0667 319° Northwest 109 125 4,000  Level Orlando TRACON
09:36AM 27.9333 -81.0833 336° Northwest 108 124 4,000  Level Orlando TRACON
09:37AM 27.9500 -81.1167 300° West 107 123 4,000  Level Orlando TRACON
09:38AM 27.9667 -81.1333 319° Northwest 105 121 4,000  Level Orlando TRACON
09:39AM 28.0000 -81.1500 336° Northwest 103 119 4,000  Level Orlando TRACON
09:40AM 28.0167 -81.1667 319° Northwest 106 122 4,000  Level Orlando TRACON
09:41AM 28.0500 -81.2000 319° Northwest 105 121 4,000  Level Orlando TRACON
09:42AM 28.0667 -81.2167 319° Northwest 102 117 4,000  Level Orlando TRACON
09:43AM 28.0833 -81.2333 319° Northwest 102 117 4,000  Level Orlando TRACON
09:44AM 28.1000 -81.2667 300° West 101 116 4,000  Level Orlando TRACON
09:45AM 28.1167 -81.3000 300° West 105 121 4,000  Level Orlando TRACON
09:46AM 28.1333 -81.3333 300° West 105 121 4,000  Level Orlando TRACON
09:47AM 28.1500 -81.3500 319° Northwest 107 123 4,000  Level Orlando TRACON
09:48AM 28.1667 -81.3833 300° West 104 120 4,000  Level Orlando TRACON
09:49AM 28.1833 -81.4000 319° Northwest 105 121 4,000  Level Orlando TRACON
09:50AM 28.2000 -81.4333 300° West 103 119 4,000  Level Orlando TRACON
09:51AM 28.2167 -81.4500 319° Northwest 103 119 4,000  Level Orlando TRACON
09:52AM 28.2500 -81.4833 319° Northwest 104 120 4,000  Level Orlando TRACON
09:53AM 28.2667 -81.5000 319° Northwest 103 119 4,000  Level Orlando TRACON
09:54AM 28.2833 -81.5167 319° Northwest 104 120 4,100  Climbing Orlando TRACON
09:55AM 28.3167 -81.5500 319° Northwest 103 119 4,100 -60 Level Orlando TRACON
09:56AM 28.3333 -81.5667 319° Northwest 114 131 4,000 -60 Descending Orlando TRACON
09:57AM 28.3500 -81.6000 300° West 110 127 4,000  Level Orlando TRACON
09:58AM 28.3667 -81.6167 319° Northwest 113 130 4,000  Level Orlando TRACON
09:59AM 28.4000 -81.6333 336° Northwest 111 128 4,000 -60 Level Orlando TRACON
10:00AM 28.4167 -81.6667 300° West 112 129 3,900 -60 Descending Orlando TRACON
10:01AM 28.4500 -81.6833 336° Northwest 116 133 3,900  Level Orlando TRACON
10:02AM 28.4667 -81.7000 319° Northwest 111 128 4,000  Climbing Orlando TRACON
10:03AM 28.5000 -81.7333 319° Northwest 116 133 4,000  Level Orlando TRACON
10:04AM 28.5167 -81.7500 319° Northwest 111 128 4,000 -60 Level Orlando TRACON
10:05AM 28.5333 -81.7833 300° West 114 131 3,900  Descending Orlando TRACON
10:06AM 28.5667 -81.8000 336° Northwest 115 132 4,000  Climbing Orlando TRACON
10:07AM 28.5833 -81.8167 319° Northwest 114 131 4,000  Level Orlando TRACON
10:08AM 28.6000 -81.8500 300° West 116 133 4,000 -60 Level Orlando TRACON
10:11AM 28.6719 -81.8869 336° Northwest 111 128 3,900 -60 Descending Jacksonville Center
10:12AM 28.7011 -81.8961 345° North 108 124 3,900  Level Jacksonville Center
10:13AM 28.7325 -81.9006 353° North 104 120 3,900  Level Jacksonville Center
10:14AM 28.7617 -81.9003 360° North 105 121 3,900  Level Jacksonville Center
10:15AM 28.7908 -81.9000 360° North 105 121 3,900  Level Jacksonville Center
10:16AM 28.8203 -81.9067 349° North 106 122 4,000  Climbing Jacksonville Center
10:17AM 28.8414 -81.9372 308° West 121 139 3,900 -60 Descending Jacksonville Center
10:18AM 28.8603 -81.9656 307° West 116 133 3,900  Level Jacksonville Center
10:19AM 28.8814 -81.9939 310° West 114 131 3,900  Level Jacksonville Center
10:20AM 28.9003 -82.0175 312° West 108 124 4,000  Climbing Jacksonville Center
10:21AM 28.9236 -82.0481 311° West 115 132 4,000  Level Jacksonville Center
10:22AM 28.9444 -82.0786 308° West 116 133 4,000 -60 Level Jacksonville Center
10:23AM 28.9656 -82.1094 308° West 118 136 3,900 -60 Descending Jacksonville Center
10:24AM 28.9867 -82.1378 310° West 117 135 3,900  Level Jacksonville Center
10:25AM 29.0056 -82.1636 310° West 114 131 4,000  Climbing Jacksonville Center
10:26AM 29.0308 -82.1967 311° West 116 133 3,900 -60 Descending Jacksonville Center
10:27AM 29.0497 -82.2275 305° West 119 137 3,900  Level Jacksonville Center
10:28AM 29.0686 -82.2606 303° West 120 138 4,000  Climbing Jacksonville Center
10:29AM 29.0878 -82.2892 307° West 111 128 4,000  Level Jacksonville Center
10:30AM 29.1086 -82.3175 310° West 122 140 4,000 -60 Level Jacksonville Center
10:31AM 29.1275 -82.3483 305° West 120 138 3,900 -60 Descending Jacksonville Center
10:32AM 29.1486 -82.3767 310° West 118 136 3,900  Level Jacksonville Center
10:33AM 29.1717 -82.4028 315° West 110 127 4,000  Climbing Jacksonville Center
10:34AM 29.1906 -82.4264 313° West 115 132 4,000  Level Jacksonville Center
10:35AM 29.2156 -82.4572 313° West 116 133 4,000 -60 Level Jacksonville Center
10:36AM 29.2325 -82.4856 304° West 114 131 3,900 -60 Descending Jacksonville Center
10:37AM 29.2472 -82.5167 298° West 117 135 3,900  Level Jacksonville Center
10:38AM 29.2639 -82.5475 302° West 115 132 3,900  Level Jacksonville Center
10:39AM 29.2828 -82.5758 307° West 113 130 4,000  Climbing Jacksonville Center
10:40AM 29.3017 -82.6117 301° West 114 131 4,000  Level Jacksonville Center
10:41AM 29.3206 -82.6425 305° West 118 136 4,000  Level Jacksonville Center
10:43AM 29.3542 -82.6972 305° West 124 143 4,000  Level Jacksonville Center
10:44AM 29.3728 -82.7281 305° West 124 143 4,000  Level Jacksonville Center
10:45AM 29.3917 -82.7592 305° West 124 143 4,000  Level Jacksonville Center
10:46AM 29.4125 -82.7878 310° West 124 143 4,000  Level Jacksonville Center
10:47AM 29.4336 -82.8164 310° West 119 137 4,000  Level Jacksonville Center
10:48AM 29.4481 -82.8472 298° West 119 137 4,000  Level Jacksonville Center
10:49AM 29.4689 -82.8758 310° West 119 137 4,000  Level Jacksonville Center
10:50AM 29.4856 -82.9092 300° West 119 137 4,000 -60 Level Jacksonville Center
10:51AM 29.5025 -82.9403 302° West 119 137 3,900  Descending Jacksonville Center
10:52AM 29.5211 -82.9714 305° West 119 137 4,000  Climbing Jacksonville Center
10:53AM 29.5442 -82.9975 315° West 119 137 4,000  Level Jacksonville Center
10:54AM 29.5628 -83.0264 307° West 119 137 4,000  Level Jacksonville Center
10:55AM 29.5858 -83.0550 313° West 119 137 4,000  Level Jacksonville Center
10:56AM 29.6044 -83.0836 307° West 119 137 4,000  Level Jacksonville Center
10:57AM 29.6253 -83.1147 308° West 119 137 4,000  Level Jacksonville Center
10:58AM 29.6442 -83.1458 305° West 119 137 4,000  Level Jacksonville Center
10:59AM 29.6628 -83.1747 307° West 119 137 4,000 -60 Level Jacksonville Center
11:00AM 29.6794 -83.2058 302° West 119 137 3,900  Descending Jacksonville Center
11:01AM 29.6981 -83.2369 305° West 119 137 4,000  Climbing Jacksonville Center
11:02AM 29.7189 -83.2681 308° West 119 137 4,000  Level Jacksonville Center
11:03AM 29.7356 -83.2967 304° West 119 137 4,000  Level Jacksonville Center
11:04AM 29.7542 -83.3281 304° West 119 137 4,000 -60 Level Jacksonville Center
11:05AM 29.7750 -83.3567 310° West 119 137 3,900 -60 Descending Jacksonville Center
11:06AM 29.7936 -83.3856 307° West 119 137 3,900  Level Jacksonville Center
11:07AM 29.8103 -83.4144 304° West 119 137 3,900  Level Jacksonville Center
11:08AM 29.8247 -83.4481 296° West 119 137 4,000  Climbing Jacksonville Center
11:09AM 29.8433 -83.4792 305° West 119 137 4,000  Level Jacksonville Center
11:10AM 29.8619 -83.5081 307° West 119 137 4,000  Level Jacksonville Center
11:11AM 29.8808 -83.5369 307° West 119 137 4,000  Level Jacksonville Center
11:12AM 29.8994 -83.5633 309° West 119 137 4,000  Level Jacksonville Center
11:13AM 29.9200 -83.5947 307° West 119 137 4,000  Level Jacksonville Center
11:14AM 29.9386 -83.6236 307° West 119 137 4,000  Level Jacksonville Center
11:15AM 29.9594 -83.6525 310° West 119 137 4,000  Level Jacksonville Center
11:16AM 29.9758 -83.6839 301° West 119 137 4,000  Level Jacksonville Center
11:17AM 29.9986 -83.7128 312° West 119 137 4,000  Level Jacksonville Center
11:18AM 30.0194 -83.7394 312° West 119 137 4,000  Level Jacksonville Center
11:19AM 30.0422 -83.7636 317° Northwest 119 137 4,100  Climbing Jacksonville Center
11:20AM 30.0567 -83.7972 296° West 114 131 4,000 -60 Descending Jacksonville Center
11:21AM 30.0711 -83.8311 296° West 114 131 4,000  Level Jacksonville Center
11:22AM 30.0875 -83.8625 301° West 114 131 4,000  Level Jacksonville Center
11:24AM 30.1106 -83.8995 306° West  Level FlightAware Approximate
11:31AM 30.2302 -84.0914 306° West  Level FlightAware Approximate
11:32AM 30.2473 -84.1188 306° West  Level FlightAware Approximate
11:33AM 30.2644 -84.1463 306° West  Level FlightAware Approximate
11:34AM 30.2858 -84.1691 319° Northwest  Level FlightAware Approximate
11:35AM 30.3060 -84.1933 305° West  Level FlightAware Approximate
11:36AM 30.3227 -84.2211 305° West  Level FlightAware Approximate
11:37AM 30.3393 -84.2489 305° West  Level FlightAware Approximate
11:38AM 30.3544 -84.2777 295° West  Level FlightAware Approximate
11:39AM 30.3667 -84.3085 295° West  Level FlightAware Approximate
11:40AM 30.3790 -84.3392 295° West  Level FlightAware Approximate
11:41AM 30.3833 -84.3500 295° West  Level FlightAware Approximate
11:42AM 30.3967 -84.3509 North  Level Estimated
11:43AM 30.3967 -84.3509 177° South  Level Estimated
11:44AM 30.3967 -84.3509 295° West  Level Estimated
11:45AM 30.3967 -84.3509 177° South  Level Estimated
11:46AM 30.3967 -84.3509 177° South  Level Estimated
11:47AM 30.3967 -84.3509 295° West  Level Estimated
11:48AM 30.3967 -84.3509 177° South  Level Estimated
11:49AM 30.3967 -84.3509 177° South  Level Estimated